sensor_id;sensor_type;location;lat;lon;timestamp;temperature;humidity
21318;DHT22;10818;50.830;6.524;2024-03-25T00:03:34;7.40;99.90
21318;DHT22;10818;50.830;6.524;2024-03-25T00:08:34;7.40;99.90
21318;DHT22;10818;50.830;6.524;2024-03-25T00:13:35;7.30;99.90
21318;DHT22;10818;50.830;6.524;2024-03-25T00:18:35;7.30;99.90
21318;DHT22;10818;50.830;6.524;2024-03-25T00:23:35;7.20;99.90
21318;DHT22;10818;50.830;6.524;2024-03-25T00:28:36;7.20;99.90
21318;DHT22;10818;50.830;6.524;2024-03-25T00:33:37;7.00;99.90
21318;DHT22;10818;50.830;6.524;2024-03-25T00:38:38;6.80;99.90
21318;DHT22;10818;50.830;6.524;2024-03-25T00:43:38;6.80;99.90
21318;DHT22;10818;50.830;6.524;2024-03-25T00:48:39;6.60;99.90
21318;DHT22;10818;50.830;6.524;2024-03-25T00:53:39;6.40;99.90
21318;DHT22;10818;50.830;6.524;2024-03-25T00:58:40;6.20;99.90
21318;DHT22;10818;50.830;6.524;2024-03-25T01:03:40;6.20;99.90
21318;DHT22;10818;50.830;6.524;2024-03-25T01:08:40;6.00;99.90
21318;DHT22;10818;50.830;6.524;2024-03-25T01:13:41;5.90;99.90
21318;DHT22;10818;50.830;6.524;2024-03-25T01:18:41;5.60;99.90
21318;DHT22;10818;50.830;6.524;2024-03-25T01:23:42;5.50;99.90
21318;DHT22;10818;50.830;6.524;2024-03-25T01:28:42;5.30;99.90
21318;DHT22;10818;50.830;6.524;2024-03-25T01:33:43;5.10;99.90
21318;DHT22;10818;50.830;6.524;2024-03-25T01:38:44;5.10;99.90
21318;DHT22;10818;50.830;6.524;2024-03-25T01:43:44;5.10;99.90
21318;DHT22;10818;50.830;6.524;2024-03-25T01:48:45;5.00;99.90
21318;DHT22;10818;50.830;6.524;2024-03-25T01:53:46;5.20;99.90
21318;DHT22;10818;50.830;6.524;2024-03-25T01:58:47;5.20;99.90
21318;DHT22;10818;50.830;6.524;2024-03-25T02:03:47;5.20;99.90
21318;DHT22;10818;50.830;6.524;2024-03-25T02:08:48;5.20;99.90
21318;DHT22;10818;50.830;6.524;2024-03-25T02:13:49;5.20;99.90
21318;DHT22;10818;50.830;6.524;2024-03-25T02:18:50;5.10;99.90
21318;DHT22;10818;50.830;6.524;2024-03-25T02:23:50;4.90;99.90
21318;DHT22;10818;50.830;6.524;2024-03-25T02:28:53;4.90;99.90
21318;DHT22;10818;50.830;6.524;2024-03-25T02:33:53;5.10;99.90
21318;DHT22;10818;50.830;6.524;2024-03-25T02:38:54;5.00;99.90
21318;DHT22;10818;50.830;6.524;2024-03-25T02:43:54;5.00;99.90
21318;DHT22;10818;50.830;6.524;2024-03-25T02:48:54;4.90;99.90
21318;DHT22;10818;50.830;6.524;2024-03-25T02:53:55;4.80;99.90
21318;DHT22;10818;50.830;6.524;2024-03-25T02:58:56;4.70;99.90
21318;DHT22;10818;50.830;6.524;2024-03-25T03:03:56;4.40;99.90
21318;DHT22;10818;50.830;6.524;2024-03-25T03:08:57;4.30;99.90
21318;DHT22;10818;50.830;6.524;2024-03-25T03:13:57;4.20;99.90
21318;DHT22;10818;50.830;6.524;2024-03-25T03:18:57;4.00;99.90
21318;DHT22;10818;50.830;6.524;2024-03-25T03:23:58;4.00;99.90
21318;DHT22;10818;50.830;6.524;2024-03-25T03:28:58;4.00;99.90
21318;DHT22;10818;50.830;6.524;2024-03-25T03:33:59;3.70;99.90
21318;DHT22;10818;50.830;6.524;2024-03-25T03:38:59;3.80;99.90
21318;DHT22;10818;50.830;6.524;2024-03-25T03:44:00;3.80;99.90
21318;DHT22;10818;50.830;6.524;2024-03-25T03:49:00;3.90;99.90
21318;DHT22;10818;50.830;6.524;2024-03-25T03:54:01;3.60;99.90
21318;DHT22;10818;50.830;6.524;2024-03-25T03:59:01;3.40;99.90
21318;DHT22;10818;50.830;6.524;2024-03-25T04:04:02;3.30;99.90
21318;DHT22;10818;50.830;6.524;2024-03-25T04:09:02;3.10;99.90
21318;DHT22;10818;50.830;6.524;2024-03-25T04:14:04;3.00;99.90
21318;DHT22;10818;50.830;6.524;2024-03-25T04:19:04;2.90;99.90
21318;DHT22;10818;50.830;6.524;2024-03-25T04:24:05;3.00;99.90
21318;DHT22;10818;50.830;6.524;2024-03-25T04:29:06;3.00;99.90
21318;DHT22;10818;50.830;6.524;2024-03-25T04:34:06;2.90;99.90
21318;DHT22;10818;50.830;6.524;2024-03-25T04:39:07;2.80;99.90
21318;DHT22;10818;50.830;6.524;2024-03-25T04:44:08;2.80;99.90
21318;DHT22;10818;50.830;6.524;2024-03-25T04:49:09;3.00;99.90
21318;DHT22;10818;50.830;6.524;2024-03-25T04:54:09;2.70;99.90
21318;DHT22;10818;50.830;6.524;2024-03-25T04:59:09;2.80;99.90
21318;DHT22;10818;50.830;6.524;2024-03-25T05:04:10;2.70;99.90
21318;DHT22;10818;50.830;6.524;2024-03-25T05:09:10;2.60;99.90
21318;DHT22;10818;50.830;6.524;2024-03-25T05:14:11;2.40;99.90
21318;DHT22;10818;50.830;6.524;2024-03-25T05:19:11;2.50;99.90
21318;DHT22;10818;50.830;6.524;2024-03-25T05:24:12;2.50;99.90
21318;DHT22;10818;50.830;6.524;2024-03-25T05:29:12;2.40;99.90
21318;DHT22;10818;50.830;6.524;2024-03-25T05:34:12;2.30;99.90
21318;DHT22;10818;50.830;6.524;2024-03-25T05:39:14;2.40;99.90
21318;DHT22;10818;50.830;6.524;2024-03-25T05:44:14;2.50;99.90
21318;DHT22;10818;50.830;6.524;2024-03-25T05:49:15;2.60;99.90
21318;DHT22;10818;50.830;6.524;2024-03-25T05:54:15;2.60;99.90
21318;DHT22;10818;50.830;6.524;2024-03-25T05:59:16;2.70;99.90
21318;DHT22;10818;50.830;6.524;2024-03-25T06:04:16;2.90;99.90
21318;DHT22;10818;50.830;6.524;2024-03-25T06:09:16;2.90;99.90
21318;DHT22;10818;50.830;6.524;2024-03-25T06:14:17;3.20;99.90
21318;DHT22;10818;50.830;6.524;2024-03-25T06:19:18;3.30;99.90
21318;DHT22;10818;50.830;6.524;2024-03-25T06:24:18;3.20;99.90
21318;DHT22;10818;50.830;6.524;2024-03-25T06:29:19;3.30;99.90
21318;DHT22;10818;50.830;6.524;2024-03-25T06:34:20;3.60;99.90
21318;DHT22;10818;50.830;6.524;2024-03-25T06:39:23;3.80;99.90
21318;DHT22;10818;50.830;6.524;2024-03-25T06:44:24;4.00;99.90
21318;DHT22;10818;50.830;6.524;2024-03-25T06:49:25;4.30;99.90
21318;DHT22;10818;50.830;6.524;2024-03-25T06:54:25;4.40;99.90
21318;DHT22;10818;50.830;6.524;2024-03-25T06:59:26;4.70;99.90
21318;DHT22;10818;50.830;6.524;2024-03-25T07:04:26;5.10;99.90
21318;DHT22;10818;50.830;6.524;2024-03-25T07:09:27;5.50;99.90
21318;DHT22;10818;50.830;6.524;2024-03-25T07:14:29;6.00;99.90
21318;DHT22;10818;50.830;6.524;2024-03-25T07:19:30;6.20;99.90
21318;DHT22;10818;50.830;6.524;2024-03-25T07:24:30;6.80;99.90
21318;DHT22;10818;50.830;6.524;2024-03-25T07:29:31;7.40;99.90
21318;DHT22;10818;50.830;6.524;2024-03-25T07:34:31;8.30;99.90
21318;DHT22;10818;50.830;6.524;2024-03-25T07:39:32;9.80;99.90
21318;DHT22;10818;50.830;6.524;2024-03-25T07:44:32;13.60;99.90
21318;DHT22;10818;50.830;6.524;2024-03-25T07:49:32;16.40;99.90
21318;DHT22;10818;50.830;6.524;2024-03-25T07:54:34;18.60;99.90
21318;DHT22;10818;50.830;6.524;2024-03-25T07:59:36;20.20;99.90
21318;DHT22;10818;50.830;6.524;2024-03-25T08:04:37;22.90;98.30
21318;DHT22;10818;50.830;6.524;2024-03-25T08:09:37;24.30;91.80
21318;DHT22;10818;50.830;6.524;2024-03-25T08:14:38;23.40;90.80
21318;DHT22;10818;50.830;6.524;2024-03-25T08:19:38;22.90;87.50
21318;DHT22;10818;50.830;6.524;2024-03-25T08:24:39;24.00;85.80
21318;DHT22;10818;50.830;6.524;2024-03-25T08:29:39;24.30;81.60
21318;DHT22;10818;50.830;6.524;2024-03-25T08:34:40;24.50;78.90
21318;DHT22;10818;50.830;6.524;2024-03-25T08:39:40;24.60;78.60
21318;DHT22;10818;50.830;6.524;2024-03-25T08:44:40;26.90;74.40
21318;DHT22;10818;50.830;6.524;2024-03-25T08:49:41;27.50;65.70
21318;DHT22;10818;50.830;6.524;2024-03-25T08:54:41;27.10;69.20
21318;DHT22;10818;50.830;6.524;2024-03-25T08:59:42;27.70;65.40
21318;DHT22;10818;50.830;6.524;2024-03-25T09:04:42;25.70;65.30
21318;DHT22;10818;50.830;6.524;2024-03-25T09:09:42;22.10;73.00
21318;DHT22;10818;50.830;6.524;2024-03-25T09:15:02;19.70;81.60
21318;DHT22;10818;50.830;6.524;2024-03-25T09:20:02;17.80;90.50
21318;DHT22;10818;50.830;6.524;2024-03-25T09:25:23;16.80;94.20
21318;DHT22;10818;50.830;6.524;2024-03-25T09:30:24;15.60;96.10
21318;DHT22;10818;50.830;6.524;2024-03-25T09:35:24;14.80;99.90
21318;DHT22;10818;50.830;6.524;2024-03-25T09:40:25;14.50;99.90
21318;DHT22;10818;50.830;6.524;2024-03-25T09:45:25;14.20;99.90
21318;DHT22;10818;50.830;6.524;2024-03-25T09:50:27;14.20;99.90
21318;DHT22;10818;50.830;6.524;2024-03-25T09:55:28;13.90;99.90
21318;DHT22;10818;50.830;6.524;2024-03-25T10:00:28;13.70;99.90
21318;DHT22;10818;50.830;6.524;2024-03-25T10:05:29;13.80;99.90
21318;DHT22;10818;50.830;6.524;2024-03-25T10:10:29;13.60;99.90
21318;DHT22;10818;50.830;6.524;2024-03-25T10:15:30;13.40;99.90
21318;DHT22;10818;50.830;6.524;2024-03-25T10:20:31;13.20;99.90
21318;DHT22;10818;50.830;6.524;2024-03-25T10:25:31;13.70;99.90
21318;DHT22;10818;50.830;6.524;2024-03-25T10:30:32;13.70;99.90
21318;DHT22;10818;50.830;6.524;2024-03-25T10:35:33;13.50;99.90
21318;DHT22;10818;50.830;6.524;2024-03-25T10:40:37;13.80;99.90
21318;DHT22;10818;50.830;6.524;2024-03-25T10:45:39;13.80;99.90
21318;DHT22;10818;50.830;6.524;2024-03-25T10:50:40;13.40;99.90
21318;DHT22;10818;50.830;6.524;2024-03-25T10:55:42;13.50;99.90
21318;DHT22;10818;50.830;6.524;2024-03-25T11:00:44;13.80;99.90
21318;DHT22;10818;50.830;6.524;2024-03-25T11:05:45;13.50;99.90
21318;DHT22;10818;50.830;6.524;2024-03-25T11:10:46;13.50;99.90
21318;DHT22;10818;50.830;6.524;2024-03-25T11:15:48;13.60;99.90
21318;DHT22;10818;50.830;6.524;2024-03-25T11:20:59;13.60;99.90
21318;DHT22;10818;50.830;6.524;2024-03-25T11:26:00;13.60;99.90
21318;DHT22;10818;50.830;6.524;2024-03-25T11:31:00;13.80;99.90
21318;DHT22;10818;50.830;6.524;2024-03-25T11:36:03;14.10;99.90
21318;DHT22;10818;50.830;6.524;2024-03-25T11:41:04;13.60;99.90
21318;DHT22;10818;50.830;6.524;2024-03-25T11:46:05;13.80;99.90
21318;DHT22;10818;50.830;6.524;2024-03-25T11:51:06;13.90;99.90
21318;DHT22;10818;50.830;6.524;2024-03-25T11:56:06;13.40;99.90
21318;DHT22;10818;50.830;6.524;2024-03-25T12:01:07;13.70;99.90
21318;DHT22;10818;50.830;6.524;2024-03-25T12:06:09;14.00;99.90
21318;DHT22;10818;50.830;6.524;2024-03-25T12:11:09;14.10;99.90
21318;DHT22;10818;50.830;6.524;2024-03-25T12:16:19;13.90;99.90
21318;DHT22;10818;50.830;6.524;2024-03-25T12:21:20;14.00;99.90
21318;DHT22;10818;50.830;6.524;2024-03-25T12:26:20;14.10;99.90
21318;DHT22;10818;50.830;6.524;2024-03-25T12:31:23;14.10;99.90
21318;DHT22;10818;50.830;6.524;2024-03-25T12:36:23;14.30;99.90
21318;DHT22;10818;50.830;6.524;2024-03-25T12:41:27;14.10;99.90
21318;DHT22;10818;50.830;6.524;2024-03-25T12:46:27;13.90;99.90
21318;DHT22;10818;50.830;6.524;2024-03-25T12:51:29;13.70;99.90
21318;DHT22;10818;50.830;6.524;2024-03-25T12:56:30;14.00;99.90
21318;DHT22;10818;50.830;6.524;2024-03-25T13:01:30;13.90;99.90
21318;DHT22;10818;50.830;6.524;2024-03-25T13:06:31;13.90;99.90
21318;DHT22;10818;50.830;6.524;2024-03-25T13:11:31;13.90;99.90
21318;DHT22;10818;50.830;6.524;2024-03-25T13:16:32;14.20;99.90
21318;DHT22;10818;50.830;6.524;2024-03-25T13:21:33;14.20;99.90
21318;DHT22;10818;50.830;6.524;2024-03-25T13:26:33;14.20;99.90
21318;DHT22;10818;50.830;6.524;2024-03-25T13:31:34;14.40;99.90
21318;DHT22;10818;50.830;6.524;2024-03-25T13:36:34;14.50;99.90
21318;DHT22;10818;50.830;6.524;2024-03-25T13:41:35;14.60;99.80
21318;DHT22;10818;50.830;6.524;2024-03-25T13:46:35;14.50;99.90
21318;DHT22;10818;50.830;6.524;2024-03-25T13:51:36;14.30;99.70
21318;DHT22;10818;50.830;6.524;2024-03-25T13:56:36;14.20;99.60
21318;DHT22;10818;50.830;6.524;2024-03-25T14:01:37;14.30;98.30
21318;DHT22;10818;50.830;6.524;2024-03-25T14:06:38;14.20;99.30
21318;DHT22;10818;50.830;6.524;2024-03-25T14:11:39;14.10;97.80
21318;DHT22;10818;50.830;6.524;2024-03-25T14:16:40;14.10;99.90
21318;DHT22;10818;50.830;6.524;2024-03-25T14:21:41;14.60;97.40
21318;DHT22;10818;50.830;6.524;2024-03-25T14:26:41;14.70;96.00
21318;DHT22;10818;50.830;6.524;2024-03-25T14:31:41;14.60;97.30
21318;DHT22;10818;50.830;6.524;2024-03-25T14:36:42;14.40;97.10
21318;DHT22;10818;50.830;6.524;2024-03-25T14:41:43;14.50;95.80
21318;DHT22;10818;50.830;6.524;2024-03-25T14:46:44;14.90;97.20
21318;DHT22;10818;50.830;6.524;2024-03-25T14:51:44;15.00;95.70
21318;DHT22;10818;50.830;6.524;2024-03-25T14:56:45;15.00;94.10
21318;DHT22;10818;50.830;6.524;2024-03-25T15:01:45;15.20;94.40
21318;DHT22;10818;50.830;6.524;2024-03-25T15:06:46;15.30;92.40
21318;DHT22;10818;50.830;6.524;2024-03-25T15:11:46;15.10;94.50
21318;DHT22;10818;50.830;6.524;2024-03-25T15:16:47;15.10;93.40
21318;DHT22;10818;50.830;6.524;2024-03-25T15:21:47;14.90;95.50
21318;DHT22;10818;50.830;6.524;2024-03-25T15:26:47;15.00;94.30
21318;DHT22;10818;50.830;6.524;2024-03-25T15:31:48;14.60;94.70
21318;DHT22;10818;50.830;6.524;2024-03-25T15:36:49;14.40;95.30
21318;DHT22;10818;50.830;6.524;2024-03-25T15:41:49;14.50;95.30
21318;DHT22;10818;50.830;6.524;2024-03-25T15:46:50;14.10;96.30
21318;DHT22;10818;50.830;6.524;2024-03-25T15:51:51;14.20;96.20
21318;DHT22;10818;50.830;6.524;2024-03-25T15:56:52;14.20;96.40
21318;DHT22;10818;50.830;6.524;2024-03-25T16:01:53;14.30;95.60
21318;DHT22;10818;50.830;6.524;2024-03-25T16:06:53;14.00;96.10
21318;DHT22;10818;50.830;6.524;2024-03-25T16:11:53;14.10;97.00
21318;DHT22;10818;50.830;6.524;2024-03-25T16:16:55;14.00;94.70
21318;DHT22;10818;50.830;6.524;2024-03-25T16:21:55;13.90;96.70
21318;DHT22;10818;50.830;6.524;2024-03-25T16:26:56;13.90;97.60
21318;DHT22;10818;50.830;6.524;2024-03-25T16:31:57;13.80;98.50
21318;DHT22;10818;50.830;6.524;2024-03-25T16:36:58;13.60;99.10
21318;DHT22;10818;50.830;6.524;2024-03-25T16:41:58;13.30;99.50
21318;DHT22;10818;50.830;6.524;2024-03-25T16:46:59;13.20;99.90
21318;DHT22;10818;50.830;6.524;2024-03-25T16:52:00;13.20;99.90
21318;DHT22;10818;50.830;6.524;2024-03-25T16:57:00;13.10;99.90
21318;DHT22;10818;50.830;6.524;2024-03-25T17:02:01;12.80;99.90
21318;DHT22;10818;50.830;6.524;2024-03-25T17:07:01;12.80;99.90
21318;DHT22;10818;50.830;6.524;2024-03-25T17:12:02;12.70;99.90
21318;DHT22;10818;50.830;6.524;2024-03-25T17:17:02;12.50;99.90
21318;DHT22;10818;50.830;6.524;2024-03-25T17:22:03;12.30;99.90
21318;DHT22;10818;50.830;6.524;2024-03-25T17:27:04;12.00;99.90
21318;DHT22;10818;50.830;6.524;2024-03-25T17:32:04;11.80;99.90
21318;DHT22;10818;50.830;6.524;2024-03-25T17:37:05;11.80;99.90
21318;DHT22;10818;50.830;6.524;2024-03-25T17:42:05;11.50;99.90
21318;DHT22;10818;50.830;6.524;2024-03-25T17:47:06;11.30;99.90
21318;DHT22;10818;50.830;6.524;2024-03-25T17:52:06;11.20;99.90
21318;DHT22;10818;50.830;6.524;2024-03-25T17:57:07;11.10;99.90
21318;DHT22;10818;50.830;6.524;2024-03-25T18:02:07;10.90;99.90
21318;DHT22;10818;50.830;6.524;2024-03-25T18:07:08;10.80;99.90
21318;DHT22;10818;50.830;6.524;2024-03-25T18:12:08;10.50;99.90
21318;DHT22;10818;50.830;6.524;2024-03-25T18:17:08;10.40;99.90
21318;DHT22;10818;50.830;6.524;2024-03-25T18:22:09;10.40;99.90
21318;DHT22;10818;50.830;6.524;2024-03-25T18:27:10;10.30;99.90
21318;DHT22;10818;50.830;6.524;2024-03-25T18:32:10;10.10;99.90
21318;DHT22;10818;50.830;6.524;2024-03-25T18:37:11;10.10;99.90
21318;DHT22;10818;50.830;6.524;2024-03-25T18:42:11;10.00;99.90
21318;DHT22;10818;50.830;6.524;2024-03-25T18:47:13;9.90;99.90
21318;DHT22;10818;50.830;6.524;2024-03-25T18:52:15;9.90;99.90
21318;DHT22;10818;50.830;6.524;2024-03-25T18:57:15;9.80;99.90
21318;DHT22;10818;50.830;6.524;2024-03-25T19:02:16;9.70;99.90
21318;DHT22;10818;50.830;6.524;2024-03-25T19:07:17;9.60;99.90
21318;DHT22;10818;50.830;6.524;2024-03-25T19:12:17;9.50;99.90
21318;DHT22;10818;50.830;6.524;2024-03-25T19:17:18;9.40;99.90
21318;DHT22;10818;50.830;6.524;2024-03-25T19:22:18;9.40;99.90
21318;DHT22;10818;50.830;6.524;2024-03-25T19:27:19;9.30;99.90
21318;DHT22;10818;50.830;6.524;2024-03-25T19:32:20;9.30;99.90
21318;DHT22;10818;50.830;6.524;2024-03-25T19:37:20;9.10;99.90
21318;DHT22;10818;50.830;6.524;2024-03-25T19:42:21;9.10;99.90
21318;DHT22;10818;50.830;6.524;2024-03-25T19:47:21;8.90;99.90
21318;DHT22;10818;50.830;6.524;2024-03-25T19:52:22;8.90;99.90
21318;DHT22;10818;50.830;6.524;2024-03-25T19:57:22;8.70;99.90
21318;DHT22;10818;50.830;6.524;2024-03-25T20:02:23;8.70;99.90
21318;DHT22;10818;50.830;6.524;2024-03-25T20:07:24;8.60;99.90
21318;DHT22;10818;50.830;6.524;2024-03-25T20:12:24;8.40;99.90
21318;DHT22;10818;50.830;6.524;2024-03-25T20:17:25;8.40;99.90
21318;DHT22;10818;50.830;6.524;2024-03-25T20:22:25;8.30;99.90
21318;DHT22;10818;50.830;6.524;2024-03-25T20:27:25;8.30;99.90
21318;DHT22;10818;50.830;6.524;2024-03-25T20:32:26;8.20;99.90
21318;DHT22;10818;50.830;6.524;2024-03-25T20:37:26;8.00;99.90
21318;DHT22;10818;50.830;6.524;2024-03-25T20:42:29;8.10;99.90
21318;DHT22;10818;50.830;6.524;2024-03-25T20:47:29;8.00;99.90
21318;DHT22;10818;50.830;6.524;2024-03-25T20:52:29;7.90;99.90
21318;DHT22;10818;50.830;6.524;2024-03-25T20:57:30;7.80;99.90
21318;DHT22;10818;50.830;6.524;2024-03-25T21:02:30;7.70;99.90
21318;DHT22;10818;50.830;6.524;2024-03-25T21:07:31;7.60;99.90
21318;DHT22;10818;50.830;6.524;2024-03-25T21:12:32;7.50;99.90
21318;DHT22;10818;50.830;6.524;2024-03-25T21:17:33;7.50;99.90
21318;DHT22;10818;50.830;6.524;2024-03-25T21:22:33;7.40;99.90
21318;DHT22;10818;50.830;6.524;2024-03-25T21:27:33;7.40;99.90
21318;DHT22;10818;50.830;6.524;2024-03-25T21:32:34;7.40;99.90
21318;DHT22;10818;50.830;6.524;2024-03-25T21:37:34;7.30;99.90
21318;DHT22;10818;50.830;6.524;2024-03-25T21:42:35;7.30;99.90
21318;DHT22;10818;50.830;6.524;2024-03-25T21:47:35;7.10;99.90
21318;DHT22;10818;50.830;6.524;2024-03-25T21:52:36;7.20;99.90
21318;DHT22;10818;50.830;6.524;2024-03-25T21:57:36;7.00;99.90
21318;DHT22;10818;50.830;6.524;2024-03-25T22:02:37;7.00;99.90
21318;DHT22;10818;50.830;6.524;2024-03-25T22:07:37;6.80;99.90
21318;DHT22;10818;50.830;6.524;2024-03-25T22:12:38;6.90;99.90
21318;DHT22;10818;50.830;6.524;2024-03-25T22:17:38;6.80;99.90
21318;DHT22;10818;50.830;6.524;2024-03-25T22:22:39;6.80;99.90
21318;DHT22;10818;50.830;6.524;2024-03-25T22:27:39;6.80;99.90
21318;DHT22;10818;50.830;6.524;2024-03-25T22:32:39;6.70;99.90
21318;DHT22;10818;50.830;6.524;2024-03-25T22:37:40;6.70;99.90
21318;DHT22;10818;50.830;6.524;2024-03-25T22:42:40;6.60;99.90
21318;DHT22;10818;50.830;6.524;2024-03-25T22:47:41;6.60;99.90
21318;DHT22;10818;50.830;6.524;2024-03-25T22:52:41;6.70;99.90
21318;DHT22;10818;50.830;6.524;2024-03-25T22:57:41;6.70;99.90
21318;DHT22;10818;50.830;6.524;2024-03-25T23:02:42;6.70;99.90
21318;DHT22;10818;50.830;6.524;2024-03-25T23:07:43;6.70;99.90
21318;DHT22;10818;50.830;6.524;2024-03-25T23:12:43;6.60;99.90
21318;DHT22;10818;50.830;6.524;2024-03-25T23:17:44;6.70;99.90
21318;DHT22;10818;50.830;6.524;2024-03-25T23:22:44;6.60;99.90
21318;DHT22;10818;50.830;6.524;2024-03-25T23:27:45;6.60;99.90
21318;DHT22;10818;50.830;6.524;2024-03-25T23:32:45;6.50;99.90
21318;DHT22;10818;50.830;6.524;2024-03-25T23:37:46;6.50;99.90
21318;DHT22;10818;50.830;6.524;2024-03-25T23:42:47;6.50;99.90
21318;DHT22;10818;50.830;6.524;2024-03-25T23:47:48;6.50;99.90
21318;DHT22;10818;50.830;6.524;2024-03-25T23:52:49;6.60;99.90
21318;DHT22;10818;50.830;6.524;2024-03-25T23:57:49;6.60;99.90
